sensor_id;sensor_type;location;lat;lon;timestamp;P1;durP1;ratioP1;P2;durP2;ratioP2
35606;SDS011;21729;58.392;15.656;2022-07-22T00:00:14;9.85;;;8.90;;
35606;SDS011;21729;58.392;15.656;2022-07-22T00:02:42;9.85;;;8.90;;
35606;SDS011;21729;58.392;15.656;2022-07-22T00:05:09;10.60;;;9.40;;
35606;SDS011;21729;58.392;15.656;2022-07-22T00:07:36;9.90;;;9.00;;
35606;SDS011;21729;58.392;15.656;2022-07-22T00:10:04;10.20;;;9.15;;
35606;SDS011;21729;58.392;15.656;2022-07-22T00:12:33;10.45;;;9.52;;
35606;SDS011;21729;58.392;15.656;2022-07-22T00:15:00;10.00;;;9.10;;
35606;SDS011;21729;58.392;15.656;2022-07-22T00:17:28;10.63;;;9.60;;
35606;SDS011;21729;58.392;15.656;2022-07-22T00:19:55;10.93;;;9.90;;
35606;SDS011;21729;58.392;15.656;2022-07-22T00:22:22;10.82;;;9.75;;
35606;SDS011;21729;58.392;15.656;2022-07-22T00:24:49;11.00;;;9.90;;
35606;SDS011;21729;58.392;15.656;2022-07-22T00:27:16;11.45;;;10.25;;
35606;SDS011;21729;58.392;15.656;2022-07-22T00:29:45;11.40;;;10.40;;
35606;SDS011;21729;58.392;15.656;2022-07-22T00:32:12;11.93;;;10.77;;
35606;SDS011;21729;58.392;15.656;2022-07-22T00:34:39;12.43;;;11.27;;
35606;SDS011;21729;58.392;15.656;2022-07-22T00:37:06;12.48;;;11.20;;
35606;SDS011;21729;58.392;15.656;2022-07-22T00:39:33;12.18;;;11.18;;
35606;SDS011;21729;58.392;15.656;2022-07-22T00:42:00;11.98;;;10.88;;
35606;SDS011;21729;58.392;15.656;2022-07-22T00:44:28;12.43;;;11.33;;
35606;SDS011;21729;58.392;15.656;2022-07-22T00:46:56;13.20;;;12.00;;
35606;SDS011;21729;58.392;15.656;2022-07-22T00:49:24;13.45;;;12.25;;
35606;SDS011;21729;58.392;15.656;2022-07-22T00:51:51;13.38;;;12.10;;
35606;SDS011;21729;58.392;15.656;2022-07-22T00:54:18;13.88;;;12.48;;
35606;SDS011;21729;58.392;15.656;2022-07-22T00:56:45;14.45;;;13.07;;
35606;SDS011;21729;58.392;15.656;2022-07-22T00:59:13;14.10;;;12.80;;
35606;SDS011;21729;58.392;15.656;2022-07-22T01:01:41;14.43;;;13.07;;
35606;SDS011;21729;58.392;15.656;2022-07-22T01:04:09;14.55;;;13.15;;
35606;SDS011;21729;58.392;15.656;2022-07-22T01:06:36;14.43;;;13.13;;
35606;SDS011;21729;58.392;15.656;2022-07-22T01:09:03;14.90;;;13.40;;
35606;SDS011;21729;58.392;15.656;2022-07-22T01:11:31;14.52;;;13.20;;
35606;SDS011;21729;58.392;15.656;2022-07-22T01:13:58;14.73;;;13.43;;
35606;SDS011;21729;58.392;15.656;2022-07-22T01:16:25;15.40;;;14.00;;
35606;SDS011;21729;58.392;15.656;2022-07-22T01:18:52;15.57;;;14.02;;
35606;SDS011;21729;58.392;15.656;2022-07-22T01:21:21;15.40;;;13.90;;
35606;SDS011;21729;58.392;15.656;2022-07-22T01:23:48;15.90;;;14.23;;
35606;SDS011;21729;58.392;15.656;2022-07-22T01:26:15;15.18;;;13.80;;
35606;SDS011;21729;58.392;15.656;2022-07-22T01:28:43;16.02;;;14.43;;
35606;SDS011;21729;58.392;15.656;2022-07-22T01:31:10;14.48;;;13.13;;
35606;SDS011;21729;58.392;15.656;2022-07-22T01:33:37;15.73;;;14.23;;
35606;SDS011;21729;58.392;15.656;2022-07-22T01:36:05;15.80;;;14.23;;
35606;SDS011;21729;58.392;15.656;2022-07-22T01:38:35;15.75;;;14.45;;
35606;SDS011;21729;58.392;15.656;2022-07-22T01:41:02;16.13;;;14.73;;
35606;SDS011;21729;58.392;15.656;2022-07-22T01:43:30;16.15;;;14.63;;
35606;SDS011;21729;58.392;15.656;2022-07-22T01:45:57;15.80;;;14.40;;
35606;SDS011;21729;58.392;15.656;2022-07-22T01:48:24;16.15;;;14.68;;
35606;SDS011;21729;58.392;15.656;2022-07-22T01:50:51;15.63;;;14.23;;
35606;SDS011;21729;58.392;15.656;2022-07-22T01:53:18;16.20;;;14.70;;
35606;SDS011;21729;58.392;15.656;2022-07-22T01:55:47;16.85;;;15.27;;
35606;SDS011;21729;58.392;15.656;2022-07-22T01:58:14;16.13;;;14.73;;
35606;SDS011;21729;58.392;15.656;2022-07-22T02:00:41;16.87;;;15.17;;
35606;SDS011;21729;58.392;15.656;2022-07-22T02:03:09;16.57;;;15.00;;
35606;SDS011;21729;58.392;15.656;2022-07-22T02:05:36;16.40;;;14.85;;
35606;SDS011;21729;58.392;15.656;2022-07-22T02:08:03;16.35;;;14.88;;
35606;SDS011;21729;58.392;15.656;2022-07-22T02:10:32;17.00;;;15.40;;
35606;SDS011;21729;58.392;15.656;2022-07-22T02:13:01;17.20;;;15.50;;
35606;SDS011;21729;58.392;15.656;2022-07-22T02:15:28;17.10;;;15.45;;
35606;SDS011;21729;58.392;15.656;2022-07-22T02:17:56;17.58;;;15.93;;
35606;SDS011;21729;58.392;15.656;2022-07-22T02:20:23;17.00;;;15.50;;
35606;SDS011;21729;58.392;15.656;2022-07-22T02:22:50;17.42;;;15.77;;
35606;SDS011;21729;58.392;15.656;2022-07-22T02:25:17;17.25;;;15.68;;
35606;SDS011;21729;58.392;15.656;2022-07-22T02:27:44;16.65;;;15.25;;
35606;SDS011;21729;58.392;15.656;2022-07-22T02:30:13;16.48;;;14.95;;
35606;SDS011;21729;58.392;15.656;2022-07-22T02:32:40;16.93;;;15.27;;
35606;SDS011;21729;58.392;15.656;2022-07-22T02:35:07;17.27;;;15.68;;
35606;SDS011;21729;58.392;15.656;2022-07-22T02:37:34;17.48;;;15.77;;
35606;SDS011;21729;58.392;15.656;2022-07-22T02:40:03;17.83;;;16.17;;
35606;SDS011;21729;58.392;15.656;2022-07-22T02:42:31;16.98;;;15.48;;
35606;SDS011;21729;58.392;15.656;2022-07-22T02:44:58;17.25;;;15.75;;
35606;SDS011;21729;58.392;15.656;2022-07-22T02:47:26;17.40;;;15.60;;
35606;SDS011;21729;58.392;15.656;2022-07-22T02:49:54;17.27;;;15.65;;
35606;SDS011;21729;58.392;15.656;2022-07-22T02:52:21;17.27;;;15.67;;
35606;SDS011;21729;58.392;15.656;2022-07-22T02:54:48;17.38;;;15.77;;
35606;SDS011;21729;58.392;15.656;2022-07-22T02:57:15;17.73;;;15.95;;
35606;SDS011;21729;58.392;15.656;2022-07-22T02:59:42;16.80;;;15.30;;
35606;SDS011;21729;58.392;15.656;2022-07-22T03:02:09;17.45;;;15.85;;
35606;SDS011;21729;58.392;15.656;2022-07-22T03:04:37;16.90;;;15.32;;
35606;SDS011;21729;58.392;15.656;2022-07-22T03:07:05;16.88;;;15.38;;
35606;SDS011;21729;58.392;15.656;2022-07-22T03:09:32;17.27;;;15.57;;
35606;SDS011;21729;58.392;15.656;2022-07-22T03:11:59;16.52;;;15.02;;
35606;SDS011;21729;58.392;15.656;2022-07-22T03:14:26;17.65;;;15.60;;
35606;SDS011;21729;58.392;15.656;2022-07-22T03:16:55;17.33;;;15.75;;
35606;SDS011;21729;58.392;15.656;2022-07-22T03:19:22;16.80;;;15.20;;
35606;SDS011;21729;58.392;15.656;2022-07-22T03:21:51;17.23;;;15.63;;
35606;SDS011;21729;58.392;15.656;2022-07-22T03:24:18;17.75;;;16.05;;
35606;SDS011;21729;58.392;15.656;2022-07-22T03:26:45;16.60;;;15.00;;
35606;SDS011;21729;58.392;15.656;2022-07-22T03:29:12;16.75;;;15.25;;
35606;SDS011;21729;58.392;15.656;2022-07-22T03:31:39;17.45;;;15.75;;
35606;SDS011;21729;58.392;15.656;2022-07-22T03:34:06;17.35;;;15.75;;
35606;SDS011;21729;58.392;15.656;2022-07-22T03:36:33;17.40;;;15.77;;
35606;SDS011;21729;58.392;15.656;2022-07-22T03:39:02;17.13;;;15.50;;
35606;SDS011;21729;58.392;15.656;2022-07-22T03:41:29;17.92;;;16.10;;
35606;SDS011;21729;58.392;15.656;2022-07-22T03:43:56;17.40;;;15.77;;
35606;SDS011;21729;58.392;15.656;2022-07-22T03:46:23;17.35;;;15.75;;
35606;SDS011;21729;58.392;15.656;2022-07-22T03:48:50;16.42;;;14.82;;
35606;SDS011;21729;58.392;15.656;2022-07-22T03:51:17;17.30;;;15.60;;
35606;SDS011;21729;58.392;15.656;2022-07-22T03:53:44;17.67;;;15.88;;
35606;SDS011;21729;58.392;15.656;2022-07-22T03:56:13;16.80;;;15.20;;
35606;SDS011;21729;58.392;15.656;2022-07-22T03:58:41;16.55;;;14.95;;
35606;SDS011;21729;58.392;15.656;2022-07-22T04:01:08;16.17;;;14.77;;
35606;SDS011;21729;58.392;15.656;2022-07-22T04:03:35;16.23;;;14.63;;
35606;SDS011;21729;58.392;15.656;2022-07-22T04:06:02;16.90;;;15.27;;
35606;SDS011;21729;58.392;15.656;2022-07-22T04:08:31;16.70;;;15.10;;
35606;SDS011;21729;58.392;15.656;2022-07-22T04:10:58;16.15;;;14.52;;
35606;SDS011;21729;58.392;15.656;2022-07-22T04:13:27;15.57;;;14.18;;
35606;SDS011;21729;58.392;15.656;2022-07-22T04:15:54;16.00;;;14.55;;
35606;SDS011;21729;58.392;15.656;2022-07-22T04:18:21;16.23;;;14.63;;
35606;SDS011;21729;58.392;15.656;2022-07-22T04:20:48;16.30;;;14.70;;
35606;SDS011;21729;58.392;15.656;2022-07-22T04:23:15;15.52;;;14.20;;
35606;SDS011;21729;58.392;15.656;2022-07-22T04:25:42;15.73;;;14.23;;
35606;SDS011;21729;58.392;15.656;2022-07-22T04:28:10;16.20;;;14.70;;
35606;SDS011;21729;58.392;15.656;2022-07-22T04:30:39;15.38;;;13.95;;
35606;SDS011;21729;58.392;15.656;2022-07-22T04:33:06;15.85;;;14.35;;
35606;SDS011;21729;58.392;15.656;2022-07-22T04:35:33;15.98;;;14.57;;
35606;SDS011;21729;58.392;15.656;2022-07-22T04:38:00;15.48;;;14.07;;
35606;SDS011;21729;58.392;15.656;2022-07-22T04:40:27;15.65;;;14.13;;
35606;SDS011;21729;58.392;15.656;2022-07-22T04:42:54;14.95;;;13.65;;
35606;SDS011;21729;58.392;15.656;2022-07-22T04:45:21;15.85;;;14.40;;
35606;SDS011;21729;58.392;15.656;2022-07-22T04:47:50;15.25;;;13.65;;
35606;SDS011;21729;58.392;15.656;2022-07-22T04:50:17;14.95;;;13.45;;
35606;SDS011;21729;58.392;15.656;2022-07-22T04:52:44;15.07;;;13.60;;
35606;SDS011;21729;58.392;15.656;2022-07-22T04:55:11;14.40;;;13.00;;
35606;SDS011;21729;58.392;15.656;2022-07-22T04:57:39;14.37;;;12.97;;
35606;SDS011;21729;58.392;15.656;2022-07-22T05:00:06;14.05;;;12.65;;
35606;SDS011;21729;58.392;15.656;2022-07-22T05:02:34;13.77;;;12.40;;
35606;SDS011;21729;58.392;15.656;2022-07-22T05:05:02;13.70;;;12.35;;
35606;SDS011;21729;58.392;15.656;2022-07-22T05:07:30;13.30;;;11.95;;
35606;SDS011;21729;58.392;15.656;2022-07-22T05:09:57;12.83;;;11.53;;
35606;SDS011;21729;58.392;15.656;2022-07-22T05:12:24;12.43;;;11.20;;
35606;SDS011;21729;58.392;15.656;2022-07-22T05:14:51;12.13;;;10.93;;
35606;SDS011;21729;58.392;15.656;2022-07-22T05:17:18;12.90;;;11.55;;
35606;SDS011;21729;58.392;15.656;2022-07-22T05:19:45;12.02;;;10.82;;
35606;SDS011;21729;58.392;15.656;2022-07-22T05:22:14;11.33;;;10.23;;
35606;SDS011;21729;58.392;15.656;2022-07-22T05:24:41;12.32;;;10.50;;
35606;SDS011;21729;58.392;15.656;2022-07-22T05:27:08;10.80;;;9.73;;
35606;SDS011;21729;58.392;15.656;2022-07-22T05:29:35;11.07;;;9.20;;
35606;SDS011;21729;58.392;15.656;2022-07-22T05:32:02;10.13;;;9.13;;
35606;SDS011;21729;58.392;15.656;2022-07-22T05:34:30;10.93;;;9.82;;
35606;SDS011;21729;58.392;15.656;2022-07-22T05:36:57;10.50;;;9.50;;
35606;SDS011;21729;58.392;15.656;2022-07-22T05:39:25;10.52;;;9.35;;
35606;SDS011;21729;58.392;15.656;2022-07-22T05:41:52;10.70;;;9.60;;
35606;SDS011;21729;58.392;15.656;2022-07-22T05:44:19;10.30;;;9.20;;
35606;SDS011;21729;58.392;15.656;2022-07-22T05:46:46;10.88;;;9.77;;
35606;SDS011;21729;58.392;15.656;2022-07-22T05:49:13;12.45;;;9.68;;
35606;SDS011;21729;58.392;15.656;2022-07-22T05:51:40;11.38;;;9.65;;
35606;SDS011;21729;58.392;15.656;2022-07-22T05:54:07;11.07;;;9.97;;
35606;SDS011;21729;58.392;15.656;2022-07-22T05:56:36;10.77;;;9.67;;
35606;SDS011;21729;58.392;15.656;2022-07-22T05:59:03;10.98;;;9.88;;
35606;SDS011;21729;58.392;15.656;2022-07-22T06:01:30;10.43;;;9.43;;
35606;SDS011;21729;58.392;15.656;2022-07-22T06:03:57;10.27;;;9.18;;
35606;SDS011;21729;58.392;15.656;2022-07-22T06:06:24;10.88;;;9.43;;
35606;SDS011;21729;58.392;15.656;2022-07-22T06:08:51;10.23;;;8.80;;
35606;SDS011;21729;58.392;15.656;2022-07-22T06:11:18;9.60;;;8.60;;
35606;SDS011;21729;58.392;15.656;2022-07-22T06:13:47;10.23;;;9.15;;
35606;SDS011;21729;58.392;15.656;2022-07-22T06:16:14;9.80;;;8.80;;
35606;SDS011;21729;58.392;15.656;2022-07-22T06:18:41;9.63;;;8.63;;
35606;SDS011;21729;58.392;15.656;2022-07-22T06:21:08;10.38;;;8.10;;
35606;SDS011;21729;58.392;15.656;2022-07-22T06:23:35;9.68;;;8.00;;
35606;SDS011;21729;58.392;15.656;2022-07-22T06:26:02;11.15;;;8.35;;
35606;SDS011;21729;58.392;15.656;2022-07-22T06:28:30;9.57;;;8.50;;
35606;SDS011;21729;58.392;15.656;2022-07-22T06:30:58;9.32;;;8.30;;
35606;SDS011;21729;58.392;15.656;2022-07-22T06:33:25;8.57;;;7.78;;
35606;SDS011;21729;58.392;15.656;2022-07-22T06:35:52;9.40;;;8.32;;
35606;SDS011;21729;58.392;15.656;2022-07-22T06:38:19;9.43;;;8.50;;
35606;SDS011;21729;58.392;15.656;2022-07-22T06:40:46;8.98;;;8.07;;
35606;SDS011;21729;58.392;15.656;2022-07-22T06:43:13;8.60;;;7.70;;
35606;SDS011;21729;58.392;15.656;2022-07-22T06:45:40;9.27;;;7.82;;
35606;SDS011;21729;58.392;15.656;2022-07-22T06:48:09;8.60;;;7.73;;
35606;SDS011;21729;58.392;15.656;2022-07-22T06:50:36;9.07;;;7.50;;
35606;SDS011;21729;58.392;15.656;2022-07-22T06:53:03;8.15;;;7.43;;
35606;SDS011;21729;58.392;15.656;2022-07-22T06:55:30;9.10;;;7.90;;
35606;SDS011;21729;58.392;15.656;2022-07-22T06:57:58;9.60;;;7.82;;
35606;SDS011;21729;58.392;15.656;2022-07-22T07:00:25;9.52;;;7.35;;
35606;SDS011;21729;58.392;15.656;2022-07-22T07:02:52;8.60;;;7.70;;
35606;SDS011;21729;58.392;15.656;2022-07-22T07:05:20;9.38;;;8.18;;
35606;SDS011;21729;58.392;15.656;2022-07-22T07:07:47;8.77;;;7.88;;
35606;SDS011;21729;58.392;15.656;2022-07-22T07:10:14;9.18;;;8.27;;
35606;SDS011;21729;58.392;15.656;2022-07-22T07:12:41;9.35;;;8.45;;
35606;SDS011;21729;58.392;15.656;2022-07-22T07:15:09;9.30;;;8.30;;
35606;SDS011;21729;58.392;15.656;2022-07-22T07:17:36;9.30;;;8.38;;
35606;SDS011;21729;58.392;15.656;2022-07-22T07:20:04;9.15;;;8.25;;
35606;SDS011;21729;58.392;15.656;2022-07-22T07:22:33;8.50;;;7.70;;
35606;SDS011;21729;58.392;15.656;2022-07-22T07:25:01;8.93;;;7.60;;
35606;SDS011;21729;58.392;15.656;2022-07-22T07:27:30;9.13;;;7.57;;
35606;SDS011;21729;58.392;15.656;2022-07-22T07:29:57;7.85;;;6.95;;
35606;SDS011;21729;58.392;15.656;2022-07-22T07:32:24;7.93;;;7.13;;
35606;SDS011;21729;58.392;15.656;2022-07-22T07:34:51;8.00;;;7.20;;
35606;SDS011;21729;58.392;15.656;2022-07-22T07:37:18;8.25;;;7.20;;
35606;SDS011;21729;58.392;15.656;2022-07-22T07:39:47;9.23;;;7.70;;
35606;SDS011;21729;58.392;15.656;2022-07-22T07:42:14;8.77;;;7.88;;
35606;SDS011;21729;58.392;15.656;2022-07-22T07:44:41;8.00;;;7.20;;
35606;SDS011;21729;58.392;15.656;2022-07-22T07:47:08;7.57;;;6.82;;
35606;SDS011;21729;58.392;15.656;2022-07-22T07:49:35;8.23;;;6.72;;
35606;SDS011;21729;58.392;15.656;2022-07-22T07:52:02;7.88;;;6.40;;
35606;SDS011;21729;58.392;15.656;2022-07-22T07:54:30;7.65;;;6.53;;
35606;SDS011;21729;58.392;15.656;2022-07-22T07:56:58;7.18;;;6.47;;
35606;SDS011;21729;58.392;15.656;2022-07-22T07:59:25;7.53;;;6.77;;
35606;SDS011;21729;58.392;15.656;2022-07-22T08:01:52;7.85;;;7.05;;
35606;SDS011;21729;58.392;15.656;2022-07-22T08:04:19;7.10;;;6.40;;
35606;SDS011;21729;58.392;15.656;2022-07-22T08:06:46;7.07;;;6.38;;
35606;SDS011;21729;58.392;15.656;2022-07-22T08:09:13;7.10;;;6.40;;
35606;SDS011;21729;58.392;15.656;2022-07-22T08:11:40;6.60;;;6.10;;
35606;SDS011;21729;58.392;15.656;2022-07-22T08:14:09;7.18;;;6.50;;
35606;SDS011;21729;58.392;15.656;2022-07-22T08:16:36;7.03;;;6.30;;
35606;SDS011;21729;58.392;15.656;2022-07-22T08:19:03;6.50;;;5.93;;
35606;SDS011;21729;58.392;15.656;2022-07-22T08:21:30;7.00;;;6.30;;
35606;SDS011;21729;58.392;15.656;2022-07-22T08:23:57;7.03;;;6.40;;
35606;SDS011;21729;58.392;15.656;2022-07-22T08:26:24;6.65;;;6.05;;
35606;SDS011;21729;58.392;15.656;2022-07-22T08:28:52;7.13;;;6.53;;
35606;SDS011;21729;58.392;15.656;2022-07-22T08:31:21;7.65;;;6.88;;
35606;SDS011;21729;58.392;15.656;2022-07-22T08:33:48;7.07;;;6.38;;
35606;SDS011;21729;58.392;15.656;2022-07-22T08:36:15;7.22;;;6.53;;
35606;SDS011;21729;58.392;15.656;2022-07-22T08:38:42;7.63;;;6.82;;
35606;SDS011;21729;58.392;15.656;2022-07-22T08:41:10;7.05;;;6.43;;
35606;SDS011;21729;58.392;15.656;2022-07-22T08:43:39;6.93;;;6.22;;
35606;SDS011;21729;58.392;15.656;2022-07-22T08:46:08;7.53;;;6.82;;
35606;SDS011;21729;58.392;15.656;2022-07-22T08:48:37;7.32;;;6.22;;
35606;SDS011;21729;58.392;15.656;2022-07-22T08:51:05;7.07;;;6.47;;
35606;SDS011;21729;58.392;15.656;2022-07-22T08:53:32;7.10;;;6.40;;
35606;SDS011;21729;58.392;15.656;2022-07-22T08:56:00;7.78;;;7.03;;
35606;SDS011;21729;58.392;15.656;2022-07-22T08:58:27;7.70;;;6.80;;
35606;SDS011;21729;58.392;15.656;2022-07-22T09:01:03;7.68;;;7.00;;
35606;SDS011;21729;58.392;15.656;2022-07-22T09:03:32;7.37;;;6.67;;
35606;SDS011;21729;58.392;15.656;2022-07-22T09:06:00;7.93;;;7.20;;
35606;SDS011;21729;58.392;15.656;2022-07-22T09:08:28;7.95;;;7.15;;
35606;SDS011;21729;58.392;15.656;2022-07-22T09:10:55;8.07;;;7.30;;
35606;SDS011;21729;58.392;15.656;2022-07-22T09:13:23;8.80;;;7.90;;
35606;SDS011;21729;58.392;15.656;2022-07-22T09:15:52;8.63;;;7.82;;
35606;SDS011;21729;58.392;15.656;2022-07-22T09:18:20;8.63;;;7.80;;
35606;SDS011;21729;58.392;15.656;2022-07-22T09:20:47;8.00;;;7.20;;
35606;SDS011;21729;58.392;15.656;2022-07-22T09:23:17;8.45;;;7.68;;
35606;SDS011;21729;58.392;15.656;2022-07-22T09:25:47;8.18;;;7.38;;
35606;SDS011;21729;58.392;15.656;2022-07-22T09:28:16;8.82;;;7.93;;
35606;SDS011;21729;58.392;15.656;2022-07-22T09:30:45;7.63;;;6.97;;
35606;SDS011;21729;58.392;15.656;2022-07-22T09:33:14;8.30;;;7.50;;
35606;SDS011;21729;58.392;15.656;2022-07-22T09:35:42;8.10;;;7.30;;
35606;SDS011;21729;58.392;15.656;2022-07-22T09:38:11;8.18;;;7.47;;
35606;SDS011;21729;58.392;15.656;2022-07-22T09:40:41;8.10;;;7.43;;
35606;SDS011;21729;58.392;15.656;2022-07-22T09:43:10;8.77;;;7.97;;
35606;SDS011;21729;58.392;15.656;2022-07-22T09:45:44;8.88;;;8.07;;
35606;SDS011;21729;58.392;15.656;2022-07-22T09:48:12;8.10;;;7.40;;
35606;SDS011;21729;58.392;15.656;2022-07-22T09:50:39;8.38;;;7.68;;
35606;SDS011;21729;58.392;15.656;2022-07-22T09:53:07;8.10;;;7.43;;
35606;SDS011;21729;58.392;15.656;2022-07-22T09:55:34;8.50;;;7.70;;
35606;SDS011;21729;58.392;15.656;2022-07-22T09:58:06;8.43;;;7.63;;
35606;SDS011;21729;58.392;15.656;2022-07-22T10:00:34;8.95;;;7.88;;
35606;SDS011;21729;58.392;15.656;2022-07-22T10:03:03;8.52;;;7.65;;
35606;SDS011;21729;58.392;15.656;2022-07-22T10:05:32;7.82;;;7.13;;
35606;SDS011;21729;58.392;15.656;2022-07-22T10:08:01;8.10;;;7.25;;
35606;SDS011;21729;58.392;15.656;2022-07-22T10:10:30;7.65;;;7.05;;
35606;SDS011;21729;58.392;15.656;2022-07-22T10:12:59;8.13;;;7.32;;
35606;SDS011;21729;58.392;15.656;2022-07-22T10:15:28;7.72;;;7.13;;
35606;SDS011;21729;58.392;15.656;2022-07-22T10:17:57;7.90;;;7.20;;
35606;SDS011;21729;58.392;15.656;2022-07-22T10:20:27;7.83;;;7.23;;
35606;SDS011;21729;58.392;15.656;2022-07-22T10:22:55;8.23;;;7.43;;
35606;SDS011;21729;58.392;15.656;2022-07-22T10:25:23;7.93;;;7.22;;
35606;SDS011;21729;58.392;15.656;2022-07-22T10:27:53;7.90;;;7.20;;
35606;SDS011;21729;58.392;15.656;2022-07-22T10:30:22;8.32;;;7.53;;
35606;SDS011;21729;58.392;15.656;2022-07-22T10:33:03;7.97;;;7.27;;
35606;SDS011;21729;58.392;15.656;2022-07-22T10:35:32;8.18;;;7.47;;
35606;SDS011;21729;58.392;15.656;2022-07-22T10:38:06;8.25;;;7.53;;
35606;SDS011;21729;58.392;15.656;2022-07-22T10:40:50;8.48;;;7.68;;
35606;SDS011;21729;58.392;15.656;2022-07-22T10:43:19;8.15;;;7.43;;
35606;SDS011;21729;58.392;15.656;2022-07-22T10:45:48;8.20;;;7.40;;
35606;SDS011;21729;58.392;15.656;2022-07-22T10:48:19;9.05;;;7.25;;
35606;SDS011;21729;58.392;15.656;2022-07-22T10:50:49;8.30;;;7.50;;
35606;SDS011;21729;58.392;15.656;2022-07-22T10:53:20;8.45;;;7.65;;
35606;SDS011;21729;58.392;15.656;2022-07-22T10:58:43;8.00;;;7.30;;
35606;SDS011;21729;58.392;15.656;2022-07-22T11:01:22;8.10;;;7.40;;
35606;SDS011;21729;58.392;15.656;2022-07-22T11:03:52;7.93;;;7.22;;
35606;SDS011;21729;58.392;15.656;2022-07-22T11:06:21;8.23;;;7.43;;
35606;SDS011;21729;58.392;15.656;2022-07-22T11:08:53;8.00;;;7.30;;
35606;SDS011;21729;58.392;15.656;2022-07-22T11:11:35;7.72;;;7.00;;
35606;SDS011;21729;58.392;15.656;2022-07-22T11:14:10;7.25;;;6.65;;
35606;SDS011;21729;58.392;15.656;2022-07-22T11:16:45;7.35;;;6.70;;
35606;SDS011;21729;58.392;15.656;2022-07-22T11:19:16;7.40;;;6.80;;
35606;SDS011;21729;58.392;15.656;2022-07-22T11:21:49;7.65;;;6.97;;
35606;SDS011;21729;58.392;15.656;2022-07-22T11:24:18;8.63;;;7.80;;
35606;SDS011;21729;58.392;15.656;2022-07-22T11:26:46;7.88;;;7.18;;
35606;SDS011;21729;58.392;15.656;2022-07-22T11:29:15;7.32;;;6.72;;
35606;SDS011;21729;58.392;15.656;2022-07-22T11:31:44;8.10;;;7.30;;
35606;SDS011;21729;58.392;15.656;2022-07-22T11:34:12;7.50;;;6.90;;
35606;SDS011;21729;58.392;15.656;2022-07-22T11:36:43;6.82;;;6.22;;
35606;SDS011;21729;58.392;15.656;2022-07-22T11:39:12;6.57;;;6.00;;
35606;SDS011;21729;58.392;15.656;2022-07-22T11:41:40;5.80;;;5.30;;
35606;SDS011;21729;58.392;15.656;2022-07-22T11:44:07;5.55;;;5.15;;
35606;SDS011;21729;58.392;15.656;2022-07-22T11:46:35;5.85;;;5.35;;
35606;SDS011;21729;58.392;15.656;2022-07-22T11:49:03;6.07;;;5.50;;
35606;SDS011;21729;58.392;15.656;2022-07-22T11:51:31;7.20;;;5.70;;
35606;SDS011;21729;58.392;15.656;2022-07-22T11:54:01;6.20;;;5.70;;
35606;SDS011;21729;58.392;15.656;2022-07-22T11:56:29;6.35;;;5.85;;
35606;SDS011;21729;58.392;15.656;2022-07-22T11:58:56;7.57;;;6.88;;
35606;SDS011;21729;58.392;15.656;2022-07-22T12:01:28;7.60;;;6.80;;
35606;SDS011;21729;58.392;15.656;2022-07-22T12:03:56;8.25;;;7.43;;
35606;SDS011;21729;58.392;15.656;2022-07-22T12:06:25;7.47;;;6.78;;
35606;SDS011;21729;58.392;15.656;2022-07-22T12:09:03;7.47;;;6.70;;
35606;SDS011;21729;58.392;15.656;2022-07-22T12:11:34;8.60;;;7.70;;
35606;SDS011;21729;58.392;15.656;2022-07-22T12:14:06;8.27;;;7.57;;
35606;SDS011;21729;58.392;15.656;2022-07-22T12:16:35;9.27;;;8.07;;
35606;SDS011;21729;58.392;15.656;2022-07-22T12:19:04;9.10;;;8.20;;
35606;SDS011;21729;58.392;15.656;2022-07-22T12:21:34;8.88;;;7.97;;
35606;SDS011;21729;58.392;15.656;2022-07-22T12:24:07;9.60;;;8.68;;
35606;SDS011;21729;58.392;15.656;2022-07-22T12:26:43;9.27;;;8.27;;
35606;SDS011;21729;58.392;15.656;2022-07-22T12:29:19;9.10;;;8.30;;
35606;SDS011;21729;58.392;15.656;2022-07-22T12:31:49;9.38;;;8.50;;
35606;SDS011;21729;58.392;15.656;2022-07-22T12:34:17;9.30;;;8.40;;
35606;SDS011;21729;58.392;15.656;2022-07-22T12:37:11;8.70;;;7.90;;
35606;SDS011;21729;58.392;15.656;2022-07-22T12:39:55;8.87;;;7.97;;
35606;SDS011;21729;58.392;15.656;2022-07-22T12:42:24;8.55;;;7.75;;
35606;SDS011;21729;58.392;15.656;2022-07-22T12:44:58;8.00;;;7.20;;
35606;SDS011;21729;58.392;15.656;2022-07-22T12:47:40;8.65;;;7.70;;
35606;SDS011;21729;58.392;15.656;2022-07-22T12:50:23;7.90;;;7.18;;
35606;SDS011;21729;58.392;15.656;2022-07-22T12:52:53;7.68;;;6.97;;
35606;SDS011;21729;58.392;15.656;2022-07-22T12:55:23;7.95;;;6.85;;
35606;SDS011;21729;58.392;15.656;2022-07-22T12:57:51;9.05;;;6.90;;
35606;SDS011;21729;58.392;15.656;2022-07-22T13:00:19;8.25;;;7.40;;
35606;SDS011;21729;58.392;15.656;2022-07-22T13:02:48;7.70;;;6.82;;
35606;SDS011;21729;58.392;15.656;2022-07-22T13:05:15;8.07;;;7.20;;
35606;SDS011;21729;58.392;15.656;2022-07-22T13:07:43;7.63;;;6.93;;
35606;SDS011;21729;58.392;15.656;2022-07-22T13:10:11;8.10;;;7.30;;
35606;SDS011;21729;58.392;15.656;2022-07-22T13:12:40;8.23;;;7.53;;
35606;SDS011;21729;58.392;15.656;2022-07-22T13:15:08;8.63;;;7.80;;
35606;SDS011;21729;58.392;15.656;2022-07-22T13:17:36;8.50;;;7.80;;
35606;SDS011;21729;58.392;15.656;2022-07-22T13:20:03;8.83;;;8.00;;
35606;SDS011;21729;58.392;15.656;2022-07-22T13:22:32;9.02;;;8.13;;
35606;SDS011;21729;58.392;15.656;2022-07-22T13:25:00;8.68;;;7.88;;
35606;SDS011;21729;58.392;15.656;2022-07-22T13:27:27;8.45;;;7.63;;
35606;SDS011;21729;58.392;15.656;2022-07-22T13:29:55;8.38;;;7.57;;
35606;SDS011;21729;58.392;15.656;2022-07-22T13:32:22;8.25;;;7.45;;
35606;SDS011;21729;58.392;15.656;2022-07-22T13:34:49;8.07;;;7.30;;
35606;SDS011;21729;58.392;15.656;2022-07-22T13:37:16;6.73;;;6.13;;
35606;SDS011;21729;58.392;15.656;2022-07-22T13:39:43;6.70;;;6.10;;
35606;SDS011;21729;58.392;15.656;2022-07-22T13:42:12;6.70;;;6.10;;
35606;SDS011;21729;58.392;15.656;2022-07-22T13:44:42;7.10;;;6.50;;
35606;SDS011;21729;58.392;15.656;2022-07-22T13:47:11;6.63;;;5.57;;
35606;SDS011;21729;58.392;15.656;2022-07-22T13:49:38;6.20;;;5.60;;
35606;SDS011;21729;58.392;15.656;2022-07-22T13:52:05;7.15;;;5.90;;
35606;SDS011;21729;58.392;15.656;2022-07-22T13:54:32;6.70;;;6.00;;
35606;SDS011;21729;58.392;15.656;2022-07-22T13:57:00;6.07;;;5.47;;
35606;SDS011;21729;58.392;15.656;2022-07-22T13:59:27;6.40;;;5.80;;
35606;SDS011;21729;58.392;15.656;2022-07-22T14:01:55;5.97;;;5.38;;
35606;SDS011;21729;58.392;15.656;2022-07-22T14:04:25;6.05;;;4.60;;
35606;SDS011;21729;58.392;15.656;2022-07-22T14:06:52;6.10;;;5.38;;
35606;SDS011;21729;58.392;15.656;2022-07-22T14:09:20;6.57;;;5.47;;
35606;SDS011;21729;58.392;15.656;2022-07-22T14:11:48;5.40;;;4.93;;
35606;SDS011;21729;58.392;15.656;2022-07-22T14:14:15;5.03;;;4.55;;
35606;SDS011;21729;58.392;15.656;2022-07-22T14:16:42;3.92;;;3.40;;
35606;SDS011;21729;58.392;15.656;2022-07-22T14:19:10;3.13;;;2.83;;
35606;SDS011;21729;58.392;15.656;2022-07-22T14:21:40;2.83;;;2.25;;
35606;SDS011;21729;58.392;15.656;2022-07-22T14:24:08;1.70;;;1.60;;
35606;SDS011;21729;58.392;15.656;2022-07-22T14:26:36;2.00;;;1.67;;
35606;SDS011;21729;58.392;15.656;2022-07-22T14:29:04;2.08;;;1.40;;
35606;SDS011;21729;58.392;15.656;2022-07-22T14:31:33;2.22;;;1.63;;